createdAt,value
2022-11-14T00:00:46.871Z,77.72
2022-11-14T00:02:07.234Z,77.73
2022-11-14T00:03:27.824Z,77.86
2022-11-14T00:04:48.152Z,77.80
2022-11-14T00:06:08.472Z,77.86
2022-11-14T00:07:33.447Z,77.97
2022-11-14T00:08:53.937Z,78.02
2022-11-14T00:10:14.760Z,78.07
2022-11-14T00:11:35.077Z,78.03
2022-11-14T00:12:55.196Z,78.19
2022-11-14T00:14:15.695Z,78.11
2022-11-14T00:15:35.921Z,78.17
2022-11-14T00:16:56.306Z,78.17
2022-11-14T00:18:17.677Z,78.34
2022-11-14T00:19:38.280Z,78.39
2022-11-14T00:20:58.227Z,78.44
2022-11-14T00:22:18.244Z,78.43
2022-11-14T00:23:38.443Z,78.54
2022-11-14T00:24:59.396Z,78.53
2022-11-14T00:26:19.675Z,78.68
2022-11-14T00:27:40.275Z,78.71
2022-11-14T00:29:00.729Z,78.66
2022-11-14T00:30:21.328Z,78.74
2022-11-14T00:31:42.038Z,78.87
2022-11-14T00:33:02.206Z,78.86
2022-11-14T00:34:22.502Z,78.97
2022-11-14T00:35:50.269Z,78.78
2022-11-14T00:37:10.821Z,78.97
2022-11-14T00:38:31.319Z,78.89
2022-11-14T00:39:52.297Z,78.77
2022-11-14T00:41:12.856Z,78.88
2022-11-14T00:42:34.040Z,78.98
2022-11-14T00:43:54.418Z,78.98
2022-11-14T00:45:14.934Z,78.82
2022-11-14T00:46:35.081Z,78.96
2022-11-14T00:47:55.666Z,79.01
2022-11-14T00:49:16.264Z,79.17
2022-11-14T00:50:37.451Z,79.13
2022-11-14T00:51:57.987Z,79.11
2022-11-14T00:53:18.427Z,79.26
2022-11-14T00:54:38.456Z,79.18
2022-11-14T00:55:58.897Z,79.20
2022-11-14T00:57:19.237Z,79.14
2022-11-14T00:58:40.472Z,79.03
2022-11-14T01:00:01.142Z,79.10
2022-11-14T01:01:21.677Z,79.00
2022-11-14T01:02:41.767Z,79.11
2022-11-14T01:04:02.058Z,79.06
2022-11-14T01:05:24.102Z,79.21
2022-11-14T01:06:44.440Z,79.18
2022-11-14T01:08:04.517Z,79.20
2022-11-14T01:09:24.856Z,79.39
2022-11-14T01:10:49.094Z,79.23
2022-11-14T01:12:09.310Z,79.34
2022-11-14T01:13:32.125Z,79.09
2022-11-14T01:14:52.599Z,78.87
2022-11-14T01:16:13.025Z,78.95
2022-11-14T01:17:33.486Z,78.94
2022-11-14T01:18:54.132Z,78.96
2022-11-14T01:20:15.818Z,78.90
2022-11-14T01:21:36.155Z,78.51
2022-11-14T01:22:56.482Z,78.36
2022-11-14T01:24:16.658Z,78.23
2022-11-14T01:25:37.682Z,78.33
2022-11-14T01:26:58.116Z,78.09
2022-11-14T01:28:19.273Z,78.28
2022-11-14T01:29:39.960Z,78.17
2022-11-14T01:31:19.639Z,78.23
2022-11-14T01:32:40.287Z,77.79
2022-11-14T01:34:00.359Z,77.90
2022-11-14T01:35:20.626Z,77.96
2022-11-14T01:36:41.566Z,77.97
2022-11-14T01:38:03.185Z,78.04
2022-11-14T01:39:23.326Z,77.99
2022-11-14T01:40:44.723Z,77.94
2022-11-14T01:42:05.667Z,77.70
2022-11-14T01:43:32.807Z,77.68
2022-11-14T01:44:53.284Z,77.60
2022-11-14T01:46:33.941Z,77.74
2022-11-14T01:47:54.233Z,77.61
2022-11-14T01:49:19.942Z,77.67
2022-11-14T01:50:40.037Z,77.62
2022-11-14T01:52:13.104Z,77.63
2022-11-14T01:53:33.774Z,77.42
2022-11-14T01:54:54.936Z,77.31
2022-11-14T01:56:19.584Z,77.58
2022-11-14T01:57:45.735Z,77.56
2022-11-14T01:59:19.643Z,77.47
2022-11-14T02:00:41.197Z,77.50
2022-11-14T02:02:08.822Z,77.57
2022-11-14T02:03:29.151Z,77.19
2022-11-14T02:05:12.570Z,77.41
2022-11-14T02:06:34.170Z,77.28
2022-11-14T02:07:54.839Z,77.27
2022-11-14T02:09:15.618Z,77.25
2022-11-14T02:10:35.663Z,77.07
2022-11-14T02:11:58.216Z,76.75
2022-11-14T02:13:18.748Z,76.83
2022-11-14T02:14:39.785Z,76.70
2022-11-14T02:16:00.959Z,76.89
2022-11-14T02:17:29.598Z,76.86
2022-11-14T02:18:51.371Z,76.01
2022-11-14T02:20:12.287Z,76.41
2022-11-14T02:21:32.907Z,76.46
2022-11-14T02:22:54.464Z,76.55
2022-11-14T02:24:14.803Z,76.50
2022-11-14T02:25:34.927Z,76.49
2022-11-14T02:26:55.384Z,76.47
2022-11-14T02:28:15.760Z,76.34
2022-11-14T02:29:36.842Z,76.27
2022-11-14T02:31:27.775Z,76.11
2022-11-14T02:34:29.424Z,76.33
2022-11-14T02:35:49.791Z,76.26
2022-11-14T02:37:10.210Z,76.08
2022-11-14T02:38:30.977Z,76.05
2022-11-14T02:39:52.194Z,76.12
2022-11-14T02:41:12.695Z,76.10
2022-11-14T02:42:33.008Z,76.28
2022-11-14T02:43:53.805Z,76.27
2022-11-14T02:45:14.140Z,76.40
2022-11-14T02:46:34.532Z,76.12
2022-11-14T02:47:54.840Z,76.12
2022-11-14T02:49:15.218Z,76.07
2022-11-14T02:50:35.536Z,76.11
2022-11-14T02:51:55.906Z,76.14
2022-11-14T02:53:16.410Z,76.11
2022-11-14T02:54:36.583Z,76.15
2022-11-14T02:55:57.046Z,75.98
2022-11-14T02:57:17.095Z,76.25
2022-11-14T02:58:37.997Z,76.24
2022-11-14T02:59:58.421Z,76.24
2022-11-14T03:01:21.415Z,76.34
2022-11-14T03:02:42.225Z,76.19
2022-11-14T03:04:02.791Z,75.81
2022-11-14T03:05:22.737Z,75.73
2022-11-14T03:06:43.049Z,75.60
2022-11-14T03:08:03.512Z,75.27
2022-11-14T03:09:23.879Z,75.07
2022-11-14T03:10:44.201Z,74.22
2022-11-14T03:12:04.895Z,74.39
2022-11-14T03:13:29.592Z,74.24
2022-11-14T03:14:50.102Z,74.45
2022-11-14T03:16:12.195Z,74.33
2022-11-14T03:17:33.815Z,74.84
2022-11-14T03:18:54.500Z,74.75
2022-11-14T03:20:14.912Z,74.81
2022-11-14T03:21:35.284Z,75.06
2022-11-14T03:22:55.495Z,74.60
2022-11-14T03:24:15.857Z,74.69
2022-11-14T03:25:36.627Z,74.90
2022-11-14T03:26:56.958Z,74.88
2022-11-14T03:28:17.618Z,74.92
2022-11-14T03:29:38.163Z,74.74
2022-11-14T03:30:58.547Z,74.46
2022-11-14T03:32:18.976Z,74.22
2022-11-14T03:33:39.701Z,74.51
2022-11-14T03:35:00.274Z,74.45
2022-11-14T03:36:20.948Z,74.38
2022-11-14T03:37:41.231Z,74.20
2022-11-14T03:39:01.433Z,74.49
2022-11-14T03:40:22.331Z,74.07
2022-11-14T03:41:42.905Z,74.37
2022-11-14T03:43:03.127Z,74.43
2022-11-14T03:44:23.539Z,74.36
2022-11-14T03:45:44.017Z,74.19
2022-11-14T03:47:04.457Z,74.28
2022-11-14T03:48:24.485Z,74.10
2022-11-14T03:49:44.758Z,74.26
2022-11-14T03:51:05.198Z,74.44
2022-11-14T03:52:25.559Z,74.53
2022-11-14T03:53:46.052Z,74.63
2022-11-14T03:55:06.427Z,74.54
2022-11-14T03:56:26.873Z,74.57
2022-11-14T03:57:47.246Z,74.57
2022-11-14T03:59:07.613Z,74.54
2022-11-14T04:00:28.140Z,74.63
2022-11-14T04:01:48.541Z,74.59
2022-11-14T04:03:08.419Z,74.81
2022-11-14T04:04:28.619Z,74.83
2022-11-14T04:05:48.864Z,74.88
2022-11-14T04:07:09.354Z,74.57
2022-11-14T04:08:30.211Z,74.83
2022-11-14T04:09:51.400Z,75.00
2022-11-14T04:11:11.673Z,74.99
2022-11-14T04:12:31.743Z,74.89
2022-11-14T04:13:51.780Z,75.10
2022-11-14T04:15:11.823Z,74.81
2022-11-14T04:16:32.312Z,74.81
2022-11-14T04:17:52.348Z,74.88
2022-11-14T04:19:12.530Z,74.83
2022-11-14T04:20:33.093Z,75.07
2022-11-14T04:21:53.389Z,74.99
2022-11-14T04:23:13.791Z,75.18
2022-11-14T04:24:34.301Z,75.02
2022-11-14T04:25:55.911Z,75.20
2022-11-14T04:27:16.477Z,75.20
2022-11-14T04:28:36.366Z,75.20
2022-11-14T04:29:56.647Z,75.08
2022-11-14T04:31:16.585Z,75.08
2022-11-14T04:32:36.468Z,75.24
2022-11-14T04:33:56.549Z,75.16
2022-11-14T04:35:16.617Z,74.95
2022-11-14T04:36:37.012Z,75.04
2022-11-14T04:37:57.318Z,75.13
2022-11-14T04:39:17.694Z,75.15
2022-11-14T04:40:38.099Z,75.19
2022-11-14T04:41:58.962Z,75.11
2022-11-14T04:43:19.983Z,75.18
2022-11-14T04:44:40.282Z,75.25
2022-11-14T04:46:00.962Z,75.07
2022-11-14T04:47:21.417Z,75.29
2022-11-14T04:48:41.826Z,75.36
2022-11-14T04:50:02.807Z,75.42
2022-11-14T04:51:23.428Z,75.34
2022-11-14T04:52:43.792Z,75.42
2022-11-14T04:54:04.164Z,75.57
2022-11-14T04:55:24.165Z,75.55
2022-11-14T04:56:45.049Z,75.22
2022-11-14T04:58:05.362Z,75.51
2022-11-14T04:59:26.012Z,75.21
2022-11-14T05:00:46.355Z,75.39
2022-11-14T05:02:06.805Z,75.46
2022-11-14T05:03:26.877Z,75.43
2022-11-14T05:04:47.999Z,75.35
2022-11-14T05:06:09.201Z,75.63
2022-11-14T05:07:29.961Z,75.65
2022-11-14T05:08:50.402Z,75.72
2022-11-14T05:10:10.369Z,75.76
2022-11-14T05:11:30.368Z,75.88
2022-11-14T05:12:53.980Z,75.89
2022-11-14T05:14:14.178Z,75.71
2022-11-14T05:15:34.550Z,75.90
2022-11-14T05:16:54.724Z,75.48
2022-11-14T05:18:15.723Z,75.69
2022-11-14T05:19:36.109Z,75.85
2022-11-14T05:20:59.917Z,75.84
2022-11-14T05:22:20.362Z,75.71
2022-11-14T05:23:40.826Z,75.89
2022-11-14T05:25:01.110Z,76.06
2022-11-14T05:26:21.077Z,75.85
2022-11-14T05:27:41.353Z,76.03
2022-11-14T05:29:01.753Z,75.88
2022-11-14T05:30:21.950Z,75.79
2022-11-14T05:31:41.900Z,75.83
2022-11-14T05:33:02.746Z,75.99
2022-11-14T05:34:23.168Z,75.64
2022-11-14T05:35:43.586Z,75.83
2022-11-14T05:37:03.911Z,75.73
2022-11-14T05:38:24.020Z,75.80
2022-11-14T05:39:44.421Z,75.64
2022-11-14T05:41:07.232Z,75.68
2022-11-14T05:42:27.947Z,75.83
2022-11-14T05:43:48.207Z,76.14
2022-11-14T05:45:09.054Z,75.97
2022-11-14T05:46:29.291Z,76.00
2022-11-14T05:47:51.115Z,76.33
2022-11-14T05:49:11.629Z,76.21
2022-11-14T05:50:31.669Z,76.17
2022-11-14T05:51:51.982Z,76.32
2022-11-14T05:53:12.235Z,76.42
2022-11-14T05:54:32.762Z,76.64
2022-11-14T05:55:53.616Z,76.39
2022-11-14T05:57:13.909Z,76.47
2022-11-14T05:58:34.933Z,76.81
2022-11-14T05:59:56.079Z,76.79
2022-11-14T06:01:17.749Z,76.77
2022-11-14T06:02:37.786Z,76.91
2022-11-14T06:03:57.956Z,77.08
2022-11-14T06:05:18.358Z,77.01
2022-11-14T06:06:38.541Z,76.81
2022-11-14T06:07:58.865Z,77.29
2022-11-14T06:09:19.348Z,77.11
2022-11-14T06:10:39.404Z,77.23
2022-11-14T06:11:59.257Z,77.24
2022-11-14T06:13:19.280Z,76.97
2022-11-14T06:14:39.740Z,77.16
2022-11-14T06:16:04.178Z,77.27
2022-11-14T06:17:24.081Z,77.44
2022-11-14T06:18:44.604Z,77.34
2022-11-14T06:20:05.351Z,77.28
2022-11-14T06:21:29.844Z,77.47
2022-11-14T06:22:53.515Z,77.51
2022-11-14T06:24:13.540Z,77.61
2022-11-14T06:25:33.422Z,77.52
2022-11-14T06:26:53.612Z,77.52
2022-11-14T06:28:13.590Z,77.51
2022-11-14T06:29:35.618Z,77.77
2022-11-14T06:30:59.308Z,77.60
2022-11-14T06:32:19.230Z,77.82
2022-11-14T06:33:39.236Z,77.60
2022-11-14T06:34:59.350Z,77.74
2022-11-14T06:36:20.054Z,77.59
2022-11-14T06:37:40.218Z,77.79
2022-11-14T06:39:00.677Z,77.90
2022-11-14T06:40:21.051Z,77.60
2022-11-14T06:41:41.033Z,77.60
2022-11-14T06:43:01.026Z,77.37
2022-11-14T06:44:26.451Z,77.72
2022-11-14T06:45:52.690Z,77.71
2022-11-14T06:47:12.741Z,77.60
2022-11-14T06:48:33.420Z,77.97
2022-11-14T06:49:54.382Z,77.86
2022-11-14T06:51:15.355Z,77.66
2022-11-14T06:52:35.713Z,77.53
2022-11-14T06:53:56.836Z,77.45
2022-11-14T06:55:20.894Z,77.82
2022-11-14T06:56:44.340Z,77.57
2022-11-14T06:58:04.353Z,77.71
2022-11-14T06:59:24.489Z,77.75
2022-11-14T07:00:44.803Z,77.74
2022-11-14T07:02:04.936Z,77.62
2022-11-14T07:03:25.111Z,77.64
2022-11-14T07:04:45.571Z,77.73
2022-11-14T07:06:06.550Z,77.97
2022-11-14T07:07:28.723Z,77.79
2022-11-14T07:08:49.491Z,77.81
2022-11-14T07:10:09.737Z,77.95
2022-11-14T07:11:31.467Z,77.73
2022-11-14T07:12:51.348Z,78.12
2022-11-14T07:14:11.635Z,77.91
2022-11-14T07:15:31.592Z,77.96
2022-11-14T07:16:51.487Z,78.17
2022-11-14T07:18:11.861Z,78.39
2022-11-14T07:19:33.040Z,77.89
2022-11-14T07:20:56.894Z,78.05
2022-11-14T07:22:17.143Z,78.06
2022-11-14T07:23:37.609Z,78.51
2022-11-14T07:24:57.870Z,78.29
2022-11-14T07:26:18.116Z,78.46
2022-11-14T07:27:38.939Z,78.71
2022-11-14T07:29:02.395Z,78.45
2022-11-14T07:30:23.495Z,78.30
2022-11-14T07:31:43.633Z,78.64
2022-11-14T07:33:03.820Z,78.72
2022-11-14T07:34:24.164Z,78.68
2022-11-14T07:35:44.417Z,78.63
2022-11-14T07:37:04.768Z,78.82
2022-11-14T07:38:24.755Z,79.00
2022-11-14T07:39:45.588Z,78.88
2022-11-14T07:41:09.679Z,79.05
2022-11-14T07:42:29.803Z,79.08
2022-11-14T07:43:49.859Z,79.20
2022-11-14T07:45:10.567Z,79.30
2022-11-14T07:46:30.407Z,79.49
2022-11-14T07:47:53.457Z,79.49
2022-11-14T07:49:14.075Z,79.71
2022-11-14T07:50:34.822Z,79.79
2022-11-14T07:51:55.225Z,79.83
2022-11-14T07:53:17.113Z,80.08
2022-11-14T07:54:38.501Z,80.16
2022-11-14T07:56:03.867Z,79.89
2022-11-14T07:57:24.263Z,80.23
2022-11-14T07:58:44.707Z,80.83
2022-11-14T08:00:05.123Z,80.51
2022-11-14T08:01:25.546Z,80.75
2022-11-14T08:02:46.502Z,81.09
2022-11-14T08:04:06.862Z,80.96
2022-11-14T08:05:26.865Z,81.13
2022-11-14T08:06:47.319Z,81.43
2022-11-14T08:08:07.349Z,81.77
2022-11-14T08:09:27.331Z,81.64
2022-11-14T08:10:47.280Z,81.63
2022-11-14T08:12:07.260Z,81.63
2022-11-14T08:13:33.204Z,82.10
2022-11-14T08:14:53.905Z,81.82
2022-11-14T08:16:14.368Z,81.87
2022-11-14T08:17:34.805Z,82.25
2022-11-14T08:18:54.982Z,82.18
2022-11-14T08:20:15.189Z,82.29
2022-11-14T08:21:35.537Z,82.52
2022-11-14T08:23:06.503Z,82.52
2022-11-14T08:24:26.723Z,82.39
2022-11-14T08:25:46.945Z,82.33
2022-11-14T08:27:07.432Z,82.90
2022-11-14T08:28:28.637Z,82.46
2022-11-14T08:29:50.477Z,82.74
2022-11-14T08:31:12.690Z,82.65
2022-11-14T08:32:33.318Z,83.13
2022-11-14T08:33:53.635Z,83.31
2022-11-14T08:35:14.216Z,82.91
2022-11-14T08:36:34.312Z,83.10
2022-11-14T08:37:54.440Z,83.07
2022-11-14T08:39:14.490Z,83.18
2022-11-14T08:40:34.449Z,83.13
2022-11-14T08:41:54.993Z,83.07
2022-11-14T08:43:14.881Z,83.31
2022-11-14T08:44:34.876Z,82.88
2022-11-14T08:46:01.546Z,82.86
2022-11-14T08:47:22.120Z,82.99
2022-11-14T08:48:42.126Z,83.00
2022-11-14T08:50:02.065Z,83.43
2022-11-14T08:51:22.342Z,83.02
2022-11-14T08:52:42.523Z,83.32
2022-11-14T08:54:02.626Z,83.29
2022-11-14T08:55:22.610Z,83.25
2022-11-14T08:56:42.867Z,83.13
2022-11-14T08:58:02.940Z,82.90
2022-11-14T08:59:23.128Z,82.86
2022-11-14T09:00:43.207Z,82.96
2022-11-14T09:02:03.158Z,82.95
2022-11-14T09:03:23.120Z,83.10
2022-11-14T09:04:43.594Z,83.04
2022-11-14T09:06:04.142Z,82.77
2022-11-14T09:07:24.189Z,82.77
2022-11-14T09:08:44.783Z,82.95
2022-11-14T09:10:05.345Z,82.83
2022-11-14T09:11:25.546Z,82.98
2022-11-14T09:12:45.809Z,83.02
2022-11-14T09:14:06.354Z,83.14
2022-11-14T09:15:29.501Z,82.81
2022-11-14T09:16:49.786Z,82.92
2022-11-14T09:18:11.032Z,82.90
2022-11-14T09:19:30.990Z,83.15
2022-11-14T09:20:51.171Z,83.01
2022-11-14T09:22:11.375Z,83.05
2022-11-14T09:23:32.441Z,83.31
2022-11-14T09:24:52.634Z,83.21
2022-11-14T09:26:12.695Z,83.34
2022-11-14T09:27:32.627Z,83.30
2022-11-14T09:28:52.784Z,83.16
2022-11-14T09:30:13.190Z,83.35
2022-11-14T09:31:33.639Z,83.18
2022-11-14T09:32:58.287Z,83.31
2022-11-14T09:34:18.826Z,83.52
2022-11-14T09:35:38.949Z,83.22
2022-11-14T09:36:58.694Z,83.17
2022-11-14T09:38:18.788Z,83.32
2022-11-14T09:39:40.156Z,83.13
2022-11-14T09:41:03.127Z,83.02
2022-11-14T09:42:38.818Z,82.64
2022-11-14T09:44:20.770Z,82.89
2022-11-14T09:45:46.464Z,82.61
2022-11-14T09:47:14.506Z,82.47
2022-11-14T09:48:38.431Z,82.74
2022-11-14T09:50:06.395Z,82.43
2022-11-14T09:51:36.791Z,82.73
2022-11-14T09:52:58.463Z,82.48
2022-11-14T09:54:23.712Z,82.46
2022-11-14T09:55:44.549Z,81.89
2022-11-14T09:57:13.162Z,81.95
2022-11-14T09:58:33.641Z,82.19
2022-11-14T09:59:55.267Z,82.03
2022-11-14T10:01:34.404Z,82.23
2022-11-14T10:02:55.033Z,82.05
2022-11-14T10:04:20.405Z,81.96
2022-11-14T10:05:46.647Z,81.61
2022-11-14T10:07:19.089Z,81.19
2022-11-14T10:08:48.971Z,80.93
2022-11-14T10:10:12.069Z,81.20
2022-11-14T10:11:34.166Z,81.06
2022-11-14T10:12:54.247Z,80.96
2022-11-14T10:14:22.197Z,81.16
2022-11-14T10:15:48.197Z,81.23
2022-11-14T10:17:11.888Z,81.16
2022-11-14T10:18:36.184Z,81.25
2022-11-14T10:20:01.364Z,81.32
2022-11-14T10:21:41.559Z,81.02
2022-11-14T10:23:07.608Z,80.78
2022-11-14T10:24:33.691Z,81.22
2022-11-14T10:25:55.737Z,80.99
2022-11-14T10:27:23.247Z,80.80
2022-11-14T10:28:46.120Z,80.77
2022-11-14T10:30:11.693Z,80.81
2022-11-14T10:31:41.408Z,80.90
2022-11-14T10:33:01.818Z,80.26
2022-11-14T10:34:33.114Z,80.10
2022-11-14T10:36:13.509Z,80.07
2022-11-14T10:37:52.483Z,80.06
2022-11-14T10:39:17.293Z,79.62
2022-11-14T10:40:40.293Z,79.20
2022-11-14T10:42:07.493Z,79.51
2022-11-14T10:43:34.338Z,79.50
2022-11-14T10:45:02.835Z,79.14
2022-11-14T10:46:26.232Z,79.42
2022-11-14T10:47:49.405Z,79.14
2022-11-14T10:49:15.909Z,79.29
2022-11-14T10:50:57.159Z,79.63
2022-11-14T10:52:19.539Z,79.63
2022-11-14T10:53:46.102Z,79.64
2022-11-14T10:55:07.800Z,79.39
2022-11-14T10:56:29.296Z,79.19
2022-11-14T10:57:49.456Z,79.03
2022-11-14T10:59:09.243Z,78.79
2022-11-14T11:00:29.499Z,79.13
2022-11-14T11:01:49.302Z,78.47
2022-11-14T11:03:09.290Z,78.05
2022-11-14T11:04:33.502Z,78.09
2022-11-14T11:05:57.298Z,77.93
2022-11-14T11:07:43.139Z,77.61
2022-11-14T11:09:31.538Z,77.78
2022-11-14T11:11:15.327Z,78.05
2022-11-14T11:12:41.758Z,78.00
2022-11-14T11:14:01.840Z,77.53
2022-11-14T11:15:22.952Z,77.84
2022-11-14T11:16:45.822Z,77.54
2022-11-14T11:18:24.965Z,77.60
2022-11-14T11:19:47.167Z,77.68
2022-11-14T11:21:07.786Z,77.75
2022-11-14T11:22:34.488Z,77.89
2022-11-14T11:23:55.828Z,78.29
2022-11-14T11:25:29.261Z,78.23
2022-11-14T11:27:09.358Z,78.34
2022-11-14T11:28:30.151Z,78.37
2022-11-14T11:30:01.336Z,78.77
2022-11-14T11:31:21.564Z,78.78
2022-11-14T11:32:41.976Z,78.93
2022-11-14T11:34:03.036Z,79.01
2022-11-14T11:35:23.030Z,78.71
2022-11-14T11:36:47.196Z,78.56
2022-11-14T11:38:11.476Z,78.76
2022-11-14T11:39:37.728Z,79.28
2022-11-14T11:41:25.980Z,79.08
2022-11-14T11:43:37.451Z,79.12
2022-11-14T11:44:49.591Z,79.77
2022-11-14T11:46:20.716Z,79.52
2022-11-14T11:47:42.318Z,79.49
2022-11-14T11:49:09.580Z,79.80
2022-11-14T11:50:29.905Z,79.50
2022-11-14T11:51:52.442Z,79.35
2022-11-14T11:53:15.765Z,79.49
2022-11-14T11:54:44.519Z,80.07
2022-11-14T11:56:24.799Z,79.87
2022-11-14T11:57:50.940Z,79.75
2022-11-14T11:59:21.432Z,80.17
2022-11-14T12:00:41.465Z,79.93
2022-11-14T12:02:03.586Z,79.84
2022-11-14T12:03:24.950Z,80.10
2022-11-14T12:04:45.582Z,80.26
2022-11-14T12:06:08.833Z,80.46
2022-11-14T12:07:44.359Z,80.75
2022-11-14T12:09:19.031Z,80.70
2022-11-14T12:10:40.567Z,80.47
2022-11-14T12:12:02.827Z,80.50
2022-11-14T12:13:42.090Z,80.65
2022-11-14T12:15:02.503Z,80.55
2022-11-14T12:16:41.594Z,80.53
2022-11-14T12:18:10.772Z,80.53
2022-11-14T12:19:38.760Z,80.55
2022-11-14T12:21:01.776Z,80.64
2022-11-14T12:22:39.658Z,80.52
2022-11-14T12:24:35.428Z,80.96
2022-11-14T12:25:55.639Z,81.13
2022-11-14T12:27:34.974Z,80.77
2022-11-14T12:29:14.064Z,81.06
2022-11-14T12:30:35.169Z,80.82
2022-11-14T12:32:03.961Z,80.78
2022-11-14T12:33:27.434Z,81.12
2022-11-14T12:34:48.707Z,80.49
2022-11-14T12:36:10.721Z,81.21
2022-11-14T12:37:33.973Z,81.33
2022-11-14T12:38:54.849Z,80.75
2022-11-14T12:40:22.620Z,81.40
2022-11-14T12:41:43.018Z,81.36
2022-11-14T12:43:04.803Z,81.33
2022-11-14T12:44:29.117Z,81.42
2022-11-14T12:45:49.546Z,81.12
2022-11-14T12:47:10.408Z,81.45
2022-11-14T12:48:32.233Z,81.52
2022-11-14T12:49:52.308Z,81.35
2022-11-14T12:51:24.949Z,81.78
2022-11-14T12:52:53.630Z,81.80
2022-11-14T12:54:32.159Z,81.86
2022-11-14T12:55:53.060Z,81.66
2022-11-14T12:57:38.313Z,82.13
2022-11-14T12:59:04.536Z,82.38
2022-11-14T13:00:25.067Z,82.23
2022-11-14T13:01:56.144Z,81.97
2022-11-14T13:03:16.641Z,82.29
2022-11-14T13:04:39.426Z,82.61
2022-11-14T13:06:10.937Z,82.16
2022-11-14T13:07:37.204Z,82.34
2022-11-14T13:09:03.768Z,82.31
2022-11-14T13:10:27.248Z,82.44
2022-11-14T13:12:06.819Z,82.30
2022-11-14T13:13:46.315Z,82.48
2022-11-14T13:15:41.548Z,82.61
2022-11-14T13:17:36.267Z,82.27
2022-11-14T13:19:33.130Z,82.93
2022-11-14T13:21:20.020Z,82.70
2022-11-14T13:22:41.230Z,83.07
2022-11-14T13:24:01.919Z,83.62
2022-11-14T13:25:22.941Z,83.31
2022-11-14T13:26:44.557Z,83.65
2022-11-14T13:28:40.168Z,83.45
2022-11-14T13:30:02.101Z,83.62
2022-11-14T13:31:45.830Z,83.58
2022-11-14T13:33:05.884Z,83.77
2022-11-14T13:34:32.111Z,83.65
2022-11-14T13:35:59.517Z,83.67
2022-11-14T13:37:41.510Z,83.88
2022-11-14T13:39:10.842Z,83.72
2022-11-14T13:40:38.212Z,83.92
2022-11-14T13:42:16.827Z,83.63
2022-11-14T13:43:45.710Z,83.86
2022-11-14T13:45:24.974Z,84.09
2022-11-14T13:46:45.509Z,84.10
2022-11-14T13:48:24.420Z,84.23
2022-11-14T13:49:58.592Z,84.49
2022-11-14T13:53:01.440Z,84.42
2022-11-14T13:54:21.410Z,84.03
2022-11-14T13:56:06.596Z,84.52
2022-11-14T13:57:29.725Z,84.64
2022-11-14T13:59:13.817Z,84.01
2022-11-14T14:01:00.097Z,84.56
2022-11-14T14:02:40.043Z,84.54
2022-11-14T14:04:03.677Z,84.47
2022-11-14T14:05:29.642Z,84.60
2022-11-14T14:07:08.873Z,84.42
2022-11-14T14:08:34.999Z,84.36
2022-11-14T14:09:58.313Z,84.26
2022-11-14T14:11:30.701Z,84.48
2022-11-14T14:12:53.567Z,84.74
2022-11-14T14:14:28.366Z,84.51
2022-11-14T14:15:51.264Z,84.22
2022-11-14T14:17:14.854Z,84.62
2022-11-14T14:18:40.837Z,84.16
2022-11-14T14:20:21.274Z,84.08
2022-11-14T14:21:50.945Z,84.30
2022-11-14T14:23:23.971Z,84.41
2022-11-14T14:25:04.040Z,84.42
2022-11-14T14:26:29.936Z,84.36
2022-11-14T14:27:50.213Z,84.18
2022-11-14T14:29:24.576Z,84.31
2022-11-14T14:31:00.842Z,84.15
2022-11-14T14:32:21.268Z,84.29
2022-11-14T14:33:45.564Z,84.51
2022-11-14T14:35:20.556Z,84.26
2022-11-14T14:36:48.167Z,84.38
2022-11-14T14:38:10.481Z,84.43
2022-11-14T14:39:30.936Z,84.43
2022-11-14T14:40:53.185Z,84.58
2022-11-14T14:42:17.035Z,84.65
2022-11-14T14:43:37.567Z,84.66
2022-11-14T14:44:58.217Z,84.72
2022-11-14T14:46:29.296Z,84.53
2022-11-14T14:48:04.687Z,84.42
2022-11-14T14:49:35.890Z,84.67
2022-11-14T14:50:57.383Z,84.62
2022-11-14T14:52:31.117Z,84.68
2022-11-14T14:53:52.367Z,85.03
2022-11-14T14:55:23.348Z,85.30
2022-11-14T14:56:51.888Z,85.27
2022-11-14T14:58:18.267Z,84.97
2022-11-14T14:59:44.285Z,85.35
2022-11-14T15:01:06.337Z,85.31
2022-11-14T15:02:27.729Z,85.49
2022-11-14T15:03:49.469Z,85.73
2022-11-14T15:05:09.712Z,85.94
2022-11-14T15:06:34.215Z,85.98
2022-11-14T15:07:59.482Z,86.14
2022-11-14T15:09:27.488Z,85.99
2022-11-14T15:10:47.770Z,86.03
2022-11-14T15:12:07.987Z,86.06
2022-11-14T15:13:29.977Z,85.82
2022-11-14T15:14:51.317Z,86.37
2022-11-14T15:16:11.663Z,85.94
2022-11-14T15:17:35.847Z,86.03
2022-11-14T15:18:57.750Z,86.18
2022-11-14T15:20:22.673Z,86.39
2022-11-14T15:21:43.386Z,86.28
2022-11-14T15:23:10.006Z,86.48
2022-11-14T15:24:30.950Z,86.40
2022-11-14T15:26:00.846Z,86.30
2022-11-14T15:27:21.201Z,86.86
2022-11-14T15:28:41.307Z,86.43
2022-11-14T15:30:03.858Z,86.67
2022-11-14T15:31:24.141Z,86.48
2022-11-14T15:32:49.422Z,86.37
2022-11-14T15:34:24.616Z,86.55
2022-11-14T15:35:45.162Z,86.37
2022-11-14T15:37:15.676Z,86.65
2022-11-14T15:38:44.057Z,86.38
2022-11-14T15:40:21.622Z,86.88
2022-11-14T15:41:42.135Z,86.79
2022-11-14T15:43:22.278Z,86.86
2022-11-14T15:44:42.952Z,86.89
2022-11-14T15:46:03.411Z,86.56
2022-11-14T15:47:25.574Z,86.83
2022-11-14T15:48:45.737Z,86.81
2022-11-14T15:50:21.713Z,86.97
2022-11-14T15:51:43.950Z,86.91
2022-11-14T15:53:06.280Z,86.86
2022-11-14T15:54:26.667Z,86.81
2022-11-14T15:55:47.255Z,86.82
2022-11-14T15:57:14.199Z,87.23
2022-11-14T15:58:34.618Z,87.47
2022-11-14T15:59:54.853Z,87.24
2022-11-14T16:01:18.559Z,87.54
2022-11-14T16:02:46.296Z,87.22
2022-11-14T16:04:14.536Z,87.52
2022-11-14T16:05:34.601Z,87.00
2022-11-14T16:06:54.354Z,87.43
2022-11-14T16:08:14.265Z,87.21
2022-11-14T16:09:34.501Z,87.71
2022-11-14T16:10:54.402Z,87.50
2022-11-14T16:12:14.595Z,87.52
2022-11-14T16:13:34.740Z,87.43
2022-11-14T16:14:55.142Z,87.44
2022-11-14T16:16:15.554Z,87.61
2022-11-14T16:17:37.542Z,87.95
2022-11-14T16:18:57.624Z,87.59
2022-11-14T16:20:18.281Z,87.43
2022-11-14T16:21:38.539Z,87.63
2022-11-14T16:22:58.576Z,87.89
2022-11-14T16:24:20.147Z,87.49
2022-11-14T16:25:40.774Z,87.88
2022-11-14T16:27:01.087Z,87.72
2022-11-14T16:28:20.990Z,87.68
2022-11-14T16:29:40.802Z,87.44
2022-11-14T16:31:00.891Z,87.74
2022-11-14T16:32:22.826Z,87.88
2022-11-14T16:33:43.181Z,87.69
2022-11-14T16:35:03.406Z,87.62
2022-11-14T16:36:24.171Z,87.74
2022-11-14T16:37:44.856Z,87.87
2022-11-14T16:39:10.598Z,87.98
2022-11-14T16:40:31.031Z,87.89
2022-11-14T16:41:50.955Z,88.07
2022-11-14T16:43:13.466Z,88.12
2022-11-14T16:44:39.011Z,88.06
2022-11-14T16:46:05.219Z,88.02
2022-11-14T16:47:25.555Z,88.13
2022-11-14T16:48:45.776Z,88.02
2022-11-14T16:50:06.198Z,87.92
2022-11-14T16:51:47.668Z,88.26
2022-11-14T16:53:07.106Z,88.16
2022-11-14T16:54:27.282Z,88.01
2022-11-14T16:55:47.663Z,88.02
2022-11-14T16:57:08.201Z,88.25
2022-11-14T16:58:28.607Z,87.85
2022-11-14T16:59:50.803Z,87.88
2022-11-14T17:01:18.583Z,88.15
2022-11-14T17:02:42.302Z,87.69
2022-11-14T17:04:02.601Z,87.71
2022-11-14T17:05:22.797Z,88.18
2022-11-14T17:06:43.242Z,87.84
2022-11-14T17:08:04.162Z,87.77
2022-11-14T17:09:24.605Z,87.73
2022-11-14T17:10:45.434Z,87.76
2022-11-14T17:12:05.672Z,87.53
2022-11-14T17:13:28.075Z,87.71
2022-11-14T17:14:48.689Z,87.69
2022-11-14T17:16:09.184Z,87.87
2022-11-14T17:17:30.285Z,87.64
2022-11-14T17:18:54.095Z,87.90
2022-11-14T17:20:15.955Z,87.78
2022-11-14T17:21:36.917Z,87.97
2022-11-14T17:22:57.614Z,87.92
2022-11-14T17:24:18.220Z,88.06
2022-11-14T17:25:38.319Z,87.78
2022-11-14T17:26:59.154Z,87.86
2022-11-14T17:28:19.437Z,88.03
2022-11-14T17:29:39.345Z,88.11
2022-11-14T17:30:59.957Z,88.18
2022-11-14T17:32:20.658Z,88.02
2022-11-14T17:33:40.579Z,88.00
2022-11-14T17:35:00.959Z,87.79
2022-11-14T17:36:21.420Z,87.99
2022-11-14T17:37:42.857Z,87.88
2022-11-14T17:39:03.844Z,87.80
2022-11-14T17:40:24.067Z,87.96
2022-11-14T17:41:44.053Z,87.90
2022-11-14T17:43:04.387Z,87.62
2022-11-14T17:44:24.785Z,87.72
2022-11-14T17:45:52.835Z,88.06
2022-11-14T17:47:12.895Z,87.90
2022-11-14T17:48:33.472Z,87.48
2022-11-14T17:49:53.962Z,87.50
2022-11-14T17:51:15.310Z,87.81
2022-11-14T17:52:36.657Z,87.53
2022-11-14T17:53:57.608Z,87.75
2022-11-14T17:55:18.112Z,87.41
2022-11-14T17:56:42.710Z,87.50